sensor_id;sensor_type;location;lat;lon;timestamp;temperature;humidity
53520;DHT22;39397;53.204;5.778;2022-09-17T00:00:08;16.50;87.60
53520;DHT22;39397;53.204;5.778;2022-09-17T00:02:34;16.60;87.20
53520;DHT22;39397;53.204;5.778;2022-09-17T00:05:00;16.50;87.50
53520;DHT22;39397;53.204;5.778;2022-09-17T00:07:25;16.60;87.60
53520;DHT22;39397;53.204;5.778;2022-09-17T00:09:52;16.60;87.70
53520;DHT22;39397;53.204;5.778;2022-09-17T00:12:18;16.50;87.50
53520;DHT22;39397;53.204;5.778;2022-09-17T00:14:44;16.50;87.30
53520;DHT22;39397;53.204;5.778;2022-09-17T00:17:09;16.60;87.40
53520;DHT22;39397;53.204;5.778;2022-09-17T00:19:35;16.60;87.40
53520;DHT22;39397;53.204;5.778;2022-09-17T00:22:01;16.50;87.20
53520;DHT22;39397;53.204;5.778;2022-09-17T00:24:27;16.50;87.30
53520;DHT22;39397;53.204;5.778;2022-09-17T00:26:52;16.40;87.20
53520;DHT22;39397;53.204;5.778;2022-09-17T00:29:18;16.50;86.90
53520;DHT22;39397;53.204;5.778;2022-09-17T00:31:44;16.50;86.80
53520;DHT22;39397;53.204;5.778;2022-09-17T00:34:10;16.50;86.80
53520;DHT22;39397;53.204;5.778;2022-09-17T00:36:37;16.50;86.90
53520;DHT22;39397;53.204;5.778;2022-09-17T00:39:05;16.40;87.80
53520;DHT22;39397;53.204;5.778;2022-09-17T00:41:32;16.30;87.60
53520;DHT22;39397;53.204;5.778;2022-09-17T00:44:01;16.40;87.80
53520;DHT22;39397;53.204;5.778;2022-09-17T00:46:46;16.30;87.70
53520;DHT22;39397;53.204;5.778;2022-09-17T00:49:16;16.30;88.10
53520;DHT22;39397;53.204;5.778;2022-09-17T00:52:04;16.30;88.30
53520;DHT22;39397;53.204;5.778;2022-09-17T00:54:30;16.30;87.00
53520;DHT22;39397;53.204;5.778;2022-09-17T00:56:57;16.30;88.40
53520;DHT22;39397;53.204;5.778;2022-09-17T00:59:23;16.30;88.40
53520;DHT22;39397;53.204;5.778;2022-09-17T01:01:50;16.30;88.40
53520;DHT22;39397;53.204;5.778;2022-09-17T01:04:19;16.30;88.40
53520;DHT22;39397;53.204;5.778;2022-09-17T01:07:05;16.20;88.50
53520;DHT22;39397;53.204;5.778;2022-09-17T01:09:58;16.30;87.10
53520;DHT22;39397;53.204;5.778;2022-09-17T01:13:13;16.30;87.00
53520;DHT22;39397;53.204;5.778;2022-09-17T01:18:34;16.20;88.40
53520;DHT22;39397;53.204;5.778;2022-09-17T01:31:16;16.30;88.30
53520;DHT22;39397;53.204;5.778;2022-09-17T01:34:10;16.20;88.10
53520;DHT22;39397;53.204;5.778;2022-09-17T01:37:19;16.30;87.10
53520;DHT22;39397;53.204;5.778;2022-09-17T01:39:56;16.30;86.80
53520;DHT22;39397;53.204;5.778;2022-09-17T01:45:12;16.30;86.70
53520;DHT22;39397;53.204;5.778;2022-09-17T01:48:01;16.30;88.50
53520;DHT22;39397;53.204;5.778;2022-09-17T01:50:35;16.30;87.00
53520;DHT22;39397;53.204;5.778;2022-09-17T01:53:02;16.30;88.40
53520;DHT22;39397;53.204;5.778;2022-09-17T01:55:32;16.30;88.20
53520;DHT22;39397;53.204;5.778;2022-09-17T02:00:29;16.20;88.00
53520;DHT22;39397;53.204;5.778;2022-09-17T02:03:38;16.20;87.90
53520;DHT22;39397;53.204;5.778;2022-09-17T02:06:07;16.30;86.70
53520;DHT22;39397;53.204;5.778;2022-09-17T02:08:48;16.20;87.70
53520;DHT22;39397;53.204;5.778;2022-09-17T02:11:16;16.30;88.30
53520;DHT22;39397;53.204;5.778;2022-09-17T02:13:47;16.20;88.10
53520;DHT22;39397;53.204;5.778;2022-09-17T02:16:36;16.30;88.20
53520;DHT22;39397;53.204;5.778;2022-09-17T02:19:15;16.30;88.10
53520;DHT22;39397;53.204;5.778;2022-09-17T02:24:46;16.30;86.70
53520;DHT22;39397;53.204;5.778;2022-09-17T02:27:22;16.20;87.80
53520;DHT22;39397;53.204;5.778;2022-09-17T02:29:49;16.20;86.30
53520;DHT22;39397;53.204;5.778;2022-09-17T02:32:15;16.20;87.60
53520;DHT22;39397;53.204;5.778;2022-09-17T02:34:41;16.20;87.70
53520;DHT22;39397;53.204;5.778;2022-09-17T02:37:07;16.20;87.60
53520;DHT22;39397;53.204;5.778;2022-09-17T02:39:33;16.20;87.50
53520;DHT22;39397;53.204;5.778;2022-09-17T02:42:27;16.20;87.40
53520;DHT22;39397;53.204;5.778;2022-09-17T02:45:06;16.20;86.20
53520;DHT22;39397;53.204;5.778;2022-09-17T02:58:47;16.00;85.90
53520;DHT22;39397;53.204;5.778;2022-09-17T03:01:33;16.10;87.50
53520;DHT22;39397;53.204;5.778;2022-09-17T03:04:04;16.00;85.90
53520;DHT22;39397;53.204;5.778;2022-09-17T03:06:31;16.10;87.20
53520;DHT22;39397;53.204;5.778;2022-09-17T03:08:57;16.00;86.80
53520;DHT22;39397;53.204;5.778;2022-09-17T03:11:23;16.00;86.70
53520;DHT22;39397;53.204;5.778;2022-09-17T03:13:49;16.00;86.90
53520;DHT22;39397;53.204;5.778;2022-09-17T03:16:15;16.00;87.00
53520;DHT22;39397;53.204;5.778;2022-09-17T03:18:40;16.00;87.00
53520;DHT22;39397;53.204;5.778;2022-09-17T03:21:07;16.00;87.10
53520;DHT22;39397;53.204;5.778;2022-09-17T03:23:33;16.00;86.90
53520;DHT22;39397;53.204;5.778;2022-09-17T03:25:59;15.90;86.80
53520;DHT22;39397;53.204;5.778;2022-09-17T03:28:24;15.90;87.20
53520;DHT22;39397;53.204;5.778;2022-09-17T03:30:51;16.00;87.20
53520;DHT22;39397;53.204;5.778;2022-09-17T03:33:17;16.00;87.10
53520;DHT22;39397;53.204;5.778;2022-09-17T03:35:44;15.90;87.20
53520;DHT22;39397;53.204;5.778;2022-09-17T03:38:10;16.00;87.30
53520;DHT22;39397;53.204;5.778;2022-09-17T03:40:36;16.00;87.00
53520;DHT22;39397;53.204;5.778;2022-09-17T03:43:01;16.00;87.10
53520;DHT22;39397;53.204;5.778;2022-09-17T03:45:27;16.20;87.30
53520;DHT22;39397;53.204;5.778;2022-09-17T03:47:53;16.40;87.30
53520;DHT22;39397;53.204;5.778;2022-09-17T03:50:18;16.00;87.00
53520;DHT22;39397;53.204;5.778;2022-09-17T03:52:44;16.00;87.20
53520;DHT22;39397;53.204;5.778;2022-09-17T03:55:10;16.10;87.20
53520;DHT22;39397;53.204;5.778;2022-09-17T03:57:36;16.00;87.20
53520;DHT22;39397;53.204;5.778;2022-09-17T04:00:03;16.00;87.30
53520;DHT22;39397;53.204;5.778;2022-09-17T04:02:29;16.10;87.40
53520;DHT22;39397;53.204;5.778;2022-09-17T04:04:55;16.10;87.70
53520;DHT22;39397;53.204;5.778;2022-09-17T04:07:20;16.10;88.50
53520;DHT22;39397;53.204;5.778;2022-09-17T04:09:46;16.00;88.00
53520;DHT22;39397;53.204;5.778;2022-09-17T04:12:12;15.90;88.20
53520;DHT22;39397;53.204;5.778;2022-09-17T04:14:37;16.00;88.50
53520;DHT22;39397;53.204;5.778;2022-09-17T04:17:03;15.90;88.60
53520;DHT22;39397;53.204;5.778;2022-09-17T04:19:29;15.90;88.60
53520;DHT22;39397;53.204;5.778;2022-09-17T04:21:54;15.90;88.60
53520;DHT22;39397;53.204;5.778;2022-09-17T04:24:20;15.90;88.80
53520;DHT22;39397;53.204;5.778;2022-09-17T04:26:46;15.80;88.40
53520;DHT22;39397;53.204;5.778;2022-09-17T04:29:11;15.80;88.60
53520;DHT22;39397;53.204;5.778;2022-09-17T04:31:37;15.80;88.60
53520;DHT22;39397;53.204;5.778;2022-09-17T04:34:02;15.80;88.60
53520;DHT22;39397;53.204;5.778;2022-09-17T04:36:28;15.80;88.50
53520;DHT22;39397;53.204;5.778;2022-09-17T04:38:54;15.90;88.60
53520;DHT22;39397;53.204;5.778;2022-09-17T04:41:19;15.80;88.50
53520;DHT22;39397;53.204;5.778;2022-09-17T04:43:45;15.80;88.50
53520;DHT22;39397;53.204;5.778;2022-09-17T04:46:11;15.80;88.40
53520;DHT22;39397;53.204;5.778;2022-09-17T04:48:38;16.40;88.80
53520;DHT22;39397;53.204;5.778;2022-09-17T04:51:04;15.70;88.50
53520;DHT22;39397;53.204;5.778;2022-09-17T04:53:30;15.70;88.50
53520;DHT22;39397;53.204;5.778;2022-09-17T04:55:55;15.70;88.60
53520;DHT22;39397;53.204;5.778;2022-09-17T04:58:21;15.70;88.50
53520;DHT22;39397;53.204;5.778;2022-09-17T05:00:47;15.70;88.50
53520;DHT22;39397;53.204;5.778;2022-09-17T05:03:13;15.70;88.50
53520;DHT22;39397;53.204;5.778;2022-09-17T05:05:39;15.70;88.70
53520;DHT22;39397;53.204;5.778;2022-09-17T05:08:04;16.30;89.00
53520;DHT22;39397;53.204;5.778;2022-09-17T05:10:32;16.50;89.20
53520;DHT22;39397;53.204;5.778;2022-09-17T05:12:58;15.80;88.80
53520;DHT22;39397;53.204;5.778;2022-09-17T05:15:24;15.80;88.70
53520;DHT22;39397;53.204;5.778;2022-09-17T05:17:51;15.80;88.70
53520;DHT22;39397;53.204;5.778;2022-09-17T05:20:17;15.80;88.60
53520;DHT22;39397;53.204;5.778;2022-09-17T05:22:51;15.70;88.70
53520;DHT22;39397;53.204;5.778;2022-09-17T05:25:19;15.70;89.00
53520;DHT22;39397;53.204;5.778;2022-09-17T05:27:48;15.70;89.20
53520;DHT22;39397;53.204;5.778;2022-09-17T05:30:14;15.70;89.30
53520;DHT22;39397;53.204;5.778;2022-09-17T05:32:40;15.70;89.30
53520;DHT22;39397;53.204;5.778;2022-09-17T05:35:06;15.60;89.30
53520;DHT22;39397;53.204;5.778;2022-09-17T05:37:32;15.70;89.60
53520;DHT22;39397;53.204;5.778;2022-09-17T05:39:58;15.70;89.50
53520;DHT22;39397;53.204;5.778;2022-09-17T05:42:24;15.70;89.50
53520;DHT22;39397;53.204;5.778;2022-09-17T05:44:49;15.70;89.60
53520;DHT22;39397;53.204;5.778;2022-09-17T05:47:15;15.70;90.10
53520;DHT22;39397;53.204;5.778;2022-09-17T05:49:41;15.80;90.40
53520;DHT22;39397;53.204;5.778;2022-09-17T05:52:07;15.70;90.60
53520;DHT22;39397;53.204;5.778;2022-09-17T05:54:32;15.80;90.80
53520;DHT22;39397;53.204;5.778;2022-09-17T05:56:58;15.80;90.80
53520;DHT22;39397;53.204;5.778;2022-09-17T05:59:23;15.80;90.90
53520;DHT22;39397;53.204;5.778;2022-09-17T06:01:49;15.70;90.90
53520;DHT22;39397;53.204;5.778;2022-09-17T06:04:15;15.80;91.00
53520;DHT22;39397;53.204;5.778;2022-09-17T06:06:42;15.80;90.90
53520;DHT22;39397;53.204;5.778;2022-09-17T06:09:08;15.80;91.00
53520;DHT22;39397;53.204;5.778;2022-09-17T06:11:35;15.80;90.90
53520;DHT22;39397;53.204;5.778;2022-09-17T06:14:01;15.80;90.90
53520;DHT22;39397;53.204;5.778;2022-09-17T06:16:26;15.90;90.90
53520;DHT22;39397;53.204;5.778;2022-09-17T06:18:52;15.80;90.80
53520;DHT22;39397;53.204;5.778;2022-09-17T06:21:18;15.80;90.50
53520;DHT22;39397;53.204;5.778;2022-09-17T06:23:46;15.90;90.50
53520;DHT22;39397;53.204;5.778;2022-09-17T06:26:12;15.80;90.50
53520;DHT22;39397;53.204;5.778;2022-09-17T06:28:38;15.90;90.60
53520;DHT22;39397;53.204;5.778;2022-09-17T06:31:05;15.80;90.60
53520;DHT22;39397;53.204;5.778;2022-09-17T06:33:32;15.80;90.60
53520;DHT22;39397;53.204;5.778;2022-09-17T06:36:00;15.90;90.50
53520;DHT22;39397;53.204;5.778;2022-09-17T06:38:26;15.90;90.40
53520;DHT22;39397;53.204;5.778;2022-09-17T06:40:52;15.90;90.40
53520;DHT22;39397;53.204;5.778;2022-09-17T06:43:18;15.90;90.50
53520;DHT22;39397;53.204;5.778;2022-09-17T06:45:57;15.90;90.50
53520;DHT22;39397;53.204;5.778;2022-09-17T06:48:24;15.90;89.60
53520;DHT22;39397;53.204;5.778;2022-09-17T06:50:51;15.80;90.40
53520;DHT22;39397;53.204;5.778;2022-09-17T06:53:22;15.90;90.40
53520;DHT22;39397;53.204;5.778;2022-09-17T06:55:48;15.80;89.40
53520;DHT22;39397;53.204;5.778;2022-09-17T06:58:14;15.80;90.40
53520;DHT22;39397;53.204;5.778;2022-09-17T07:00:40;16.00;90.40
53520;DHT22;39397;53.204;5.778;2022-09-17T07:03:06;15.80;90.40
53520;DHT22;39397;53.204;5.778;2022-09-17T07:05:33;15.80;90.40
53520;DHT22;39397;53.204;5.778;2022-09-17T07:08:00;15.80;90.30
53520;DHT22;39397;53.204;5.778;2022-09-17T07:10:28;15.70;90.30
53520;DHT22;39397;53.204;5.778;2022-09-17T07:12:54;15.70;90.40
53520;DHT22;39397;53.204;5.778;2022-09-17T07:15:19;15.70;90.40
53520;DHT22;39397;53.204;5.778;2022-09-17T07:17:45;15.70;90.50
53520;DHT22;39397;53.204;5.778;2022-09-17T07:20:11;15.70;90.60
53520;DHT22;39397;53.204;5.778;2022-09-17T07:22:37;16.90;91.00
53520;DHT22;39397;53.204;5.778;2022-09-17T07:25:05;15.80;90.70
53520;DHT22;39397;53.204;5.778;2022-09-17T07:27:31;15.90;90.70
53520;DHT22;39397;53.204;5.778;2022-09-17T07:29:57;15.90;90.90
53520;DHT22;39397;53.204;5.778;2022-09-17T07:32:23;15.90;90.90
53520;DHT22;39397;53.204;5.778;2022-09-17T07:34:49;16.00;90.90
53520;DHT22;39397;53.204;5.778;2022-09-17T07:37:15;16.10;90.80
53520;DHT22;39397;53.204;5.778;2022-09-17T07:39:41;16.00;90.80
53520;DHT22;39397;53.204;5.778;2022-09-17T07:42:08;16.30;90.90
53520;DHT22;39397;53.204;5.778;2022-09-17T07:44:34;16.30;90.80
53520;DHT22;39397;53.204;5.778;2022-09-17T07:46:59;16.30;90.80
53520;DHT22;39397;53.204;5.778;2022-09-17T07:49:25;16.20;90.80
53520;DHT22;39397;53.204;5.778;2022-09-17T07:51:51;16.50;90.80
53520;DHT22;39397;53.204;5.778;2022-09-17T07:54:17;16.40;90.60
53520;DHT22;39397;53.204;5.778;2022-09-17T07:56:43;16.50;90.80
53520;DHT22;39397;53.204;5.778;2022-09-17T07:59:09;16.50;90.70
53520;DHT22;39397;53.204;5.778;2022-09-17T08:01:35;16.50;90.70
53520;DHT22;39397;53.204;5.778;2022-09-17T08:04:01;16.40;90.80
53520;DHT22;39397;53.204;5.778;2022-09-17T08:06:27;16.40;91.00
53520;DHT22;39397;53.204;5.778;2022-09-17T08:08:58;16.40;90.80
53520;DHT22;39397;53.204;5.778;2022-09-17T08:11:27;16.40;90.70
53520;DHT22;39397;53.204;5.778;2022-09-17T08:13:54;16.30;90.80
53520;DHT22;39397;53.204;5.778;2022-09-17T08:16:21;16.30;90.70
53520;DHT22;39397;53.204;5.778;2022-09-17T08:18:48;16.30;90.80
53520;DHT22;39397;53.204;5.778;2022-09-17T08:21:17;16.40;90.80
53520;DHT22;39397;53.204;5.778;2022-09-17T08:23:43;16.40;90.80
53520;DHT22;39397;53.204;5.778;2022-09-17T08:26:17;16.40;90.60
53520;DHT22;39397;53.204;5.778;2022-09-17T08:28:45;16.50;90.70
53520;DHT22;39397;53.204;5.778;2022-09-17T08:31:13;16.50;90.50
53520;DHT22;39397;53.204;5.778;2022-09-17T08:33:39;16.40;90.50
53520;DHT22;39397;53.204;5.778;2022-09-17T08:36:08;17.30;90.80
53520;DHT22;39397;53.204;5.778;2022-09-17T08:38:35;16.50;90.60
53520;DHT22;39397;53.204;5.778;2022-09-17T08:43:45;16.50;90.60
53520;DHT22;39397;53.204;5.778;2022-09-17T08:46:12;16.40;89.80
53520;DHT22;39397;53.204;5.778;2022-09-17T08:49:11;16.40;90.40
53520;DHT22;39397;53.204;5.778;2022-09-17T09:00:53;16.50;89.10
53520;DHT22;39397;53.204;5.778;2022-09-17T09:03:55;16.50;88.80
53520;DHT22;39397;53.204;5.778;2022-09-17T09:06:28;16.40;88.80
53520;DHT22;39397;53.204;5.778;2022-09-17T09:09:01;17.40;90.20
53520;DHT22;39397;53.204;5.778;2022-09-17T09:11:28;16.50;90.00
53520;DHT22;39397;53.204;5.778;2022-09-17T09:14:18;16.40;90.00
53520;DHT22;39397;53.204;5.778;2022-09-17T09:16:46;16.50;88.60
53520;DHT22;39397;53.204;5.778;2022-09-17T09:19:24;16.40;89.70
53520;DHT22;39397;53.204;5.778;2022-09-17T09:27:26;16.40;88.30
53520;DHT22;39397;53.204;5.778;2022-09-17T09:30:08;16.50;90.00
53520;DHT22;39397;53.204;5.778;2022-09-17T09:35:11;16.60;89.80
53520;DHT22;39397;53.204;5.778;2022-09-17T09:37:39;16.60;90.00
53520;DHT22;39397;53.204;5.778;2022-09-17T09:43:18;16.40;89.40
53520;DHT22;39397;53.204;5.778;2022-09-17T09:46:03;18.20;91.00
53520;DHT22;39397;53.204;5.778;2022-09-17T09:51:40;16.30;89.70
53520;DHT22;39397;53.204;5.778;2022-09-17T09:54:25;16.50;90.00
53520;DHT22;39397;53.204;5.778;2022-09-17T09:56:57;16.50;90.40
53520;DHT22;39397;53.204;5.778;2022-09-17T09:59:25;16.50;90.50
53520;DHT22;39397;53.204;5.778;2022-09-17T10:01:51;16.50;90.40
53520;DHT22;39397;53.204;5.778;2022-09-17T10:04:23;16.40;90.40
53520;DHT22;39397;53.204;5.778;2022-09-17T10:06:54;16.70;90.60
53520;DHT22;39397;53.204;5.778;2022-09-17T10:09:24;16.60;90.50
53520;DHT22;39397;53.204;5.778;2022-09-17T10:12:18;16.70;90.50
53520;DHT22;39397;53.204;5.778;2022-09-17T10:14:46;16.70;90.60
53520;DHT22;39397;53.204;5.778;2022-09-17T10:19:40;16.60;89.60
53520;DHT22;39397;53.204;5.778;2022-09-17T10:22:31;16.50;90.50
53520;DHT22;39397;53.204;5.778;2022-09-17T10:25:02;16.60;89.90
53520;DHT22;39397;53.204;5.778;2022-09-17T10:27:29;16.50;90.50
53520;DHT22;39397;53.204;5.778;2022-09-17T10:30:15;16.50;90.50
53520;DHT22;39397;53.204;5.778;2022-09-17T10:32:42;16.30;90.50
53520;DHT22;39397;53.204;5.778;2022-09-17T10:37:45;16.50;90.70
53520;DHT22;39397;53.204;5.778;2022-09-17T10:42:49;16.40;90.20
53520;DHT22;39397;53.204;5.778;2022-09-17T10:45:29;16.30;90.20
53520;DHT22;39397;53.204;5.778;2022-09-17T10:47:56;16.10;90.90
53520;DHT22;39397;53.204;5.778;2022-09-17T10:50:33;16.30;90.80
53520;DHT22;39397;53.204;5.778;2022-09-17T10:53:03;16.30;90.30
53520;DHT22;39397;53.204;5.778;2022-09-17T11:01:34;16.30;90.90
53520;DHT22;39397;53.204;5.778;2022-09-17T11:21:25;16.30;90.20
53520;DHT22;39397;53.204;5.778;2022-09-17T11:26:53;16.30;90.30
53520;DHT22;39397;53.204;5.778;2022-09-17T11:42:11;16.40;90.00
53520;DHT22;39397;53.204;5.778;2022-09-17T11:45:09;16.30;90.50
53520;DHT22;39397;53.204;5.778;2022-09-17T11:47:45;16.40;89.80
53520;DHT22;39397;53.204;5.778;2022-09-17T11:55:43;16.40;90.00
53520;DHT22;39397;53.204;5.778;2022-09-17T11:58:14;16.50;89.70
53520;DHT22;39397;53.204;5.778;2022-09-17T12:00:48;16.50;90.00
53520;DHT22;39397;53.204;5.778;2022-09-17T12:03:28;16.60;90.00
53520;DHT22;39397;53.204;5.778;2022-09-17T12:05:59;16.60;88.50
53520;DHT22;39397;53.204;5.778;2022-09-17T12:08:43;16.60;90.10
53520;DHT22;39397;53.204;5.778;2022-09-17T12:14:05;16.70;88.10
53520;DHT22;39397;53.204;5.778;2022-09-17T12:16:42;16.70;89.50
53520;DHT22;39397;53.204;5.778;2022-09-17T12:19:22;16.80;89.20
53520;DHT22;39397;53.204;5.778;2022-09-17T12:22:00;16.80;87.00
53520;DHT22;39397;53.204;5.778;2022-09-17T12:24:30;16.90;86.60
53520;DHT22;39397;53.204;5.778;2022-09-17T12:48:04;17.40;87.40
53520;DHT22;39397;53.204;5.778;2022-09-17T12:53:28;17.00;87.40
53520;DHT22;39397;53.204;5.778;2022-09-17T12:56:22;16.80;87.10
53520;DHT22;39397;53.204;5.778;2022-09-17T12:59:03;16.90;87.50
53520;DHT22;39397;53.204;5.778;2022-09-17T13:01:51;17.00;87.50
53520;DHT22;39397;53.204;5.778;2022-09-17T13:12:56;16.90;87.50
53520;DHT22;39397;53.204;5.778;2022-09-17T13:18:02;16.80;87.60
53520;DHT22;39397;53.204;5.778;2022-09-17T13:20:49;16.80;89.40
53520;DHT22;39397;53.204;5.778;2022-09-17T13:23:40;16.90;87.80
53520;DHT22;39397;53.204;5.778;2022-09-17T13:26:07;17.00;89.60
53520;DHT22;39397;53.204;5.778;2022-09-17T13:28:51;16.80;89.30
53520;DHT22;39397;53.204;5.778;2022-09-17T13:32:06;17.10;89.70
53520;DHT22;39397;53.204;5.778;2022-09-17T13:44:37;16.80;88.50
53520;DHT22;39397;53.204;5.778;2022-09-17T13:47:17;16.80;89.90
53520;DHT22;39397;53.204;5.778;2022-09-17T13:49:51;16.80;88.60
53520;DHT22;39397;53.204;5.778;2022-09-17T13:52:45;16.80;90.10
53520;DHT22;39397;53.204;5.778;2022-09-17T13:55:34;16.80;89.20
53520;DHT22;39397;53.204;5.778;2022-09-17T14:00:56;16.90;89.50
53520;DHT22;39397;53.204;5.778;2022-09-17T14:32:55;16.80;88.30
53520;DHT22;39397;53.204;5.778;2022-09-17T14:40:45;16.90;88.30
53520;DHT22;39397;53.204;5.778;2022-09-17T14:43:38;16.90;88.00
53520;DHT22;39397;53.204;5.778;2022-09-17T14:46:07;17.00;88.30
53520;DHT22;39397;53.204;5.778;2022-09-17T14:48:34;16.90;89.50
53520;DHT22;39397;53.204;5.778;2022-09-17T14:53:43;17.00;88.70
53520;DHT22;39397;53.204;5.778;2022-09-17T14:56:12;17.00;88.50
53520;DHT22;39397;53.204;5.778;2022-09-17T14:58:51;17.00;88.50
53520;DHT22;39397;53.204;5.778;2022-09-17T15:01:25;17.10;88.30
53520;DHT22;39397;53.204;5.778;2022-09-17T15:06:40;17.10;86.60
53520;DHT22;39397;53.204;5.778;2022-09-17T15:09:17;17.10;87.90
53520;DHT22;39397;53.204;5.778;2022-09-17T15:11:44;17.10;86.40
53520;DHT22;39397;53.204;5.778;2022-09-17T15:14:21;17.20;87.80
53520;DHT22;39397;53.204;5.778;2022-09-17T15:16:53;17.10;87.90
53520;DHT22;39397;53.204;5.778;2022-09-17T15:19:33;17.20;87.60
53520;DHT22;39397;53.204;5.778;2022-09-17T15:22:09;17.20;85.70
53520;DHT22;39397;53.204;5.778;2022-09-17T15:25:05;17.30;87.30
53520;DHT22;39397;53.204;5.778;2022-09-17T15:27:39;17.40;85.40
53520;DHT22;39397;53.204;5.778;2022-09-17T15:30:12;17.40;85.20
53520;DHT22;39397;53.204;5.778;2022-09-17T15:32:50;17.50;86.20
53520;DHT22;39397;53.204;5.778;2022-09-17T15:35:19;17.60;84.80
53520;DHT22;39397;53.204;5.778;2022-09-17T15:38:18;17.70;86.10
53520;DHT22;39397;53.204;5.778;2022-09-17T15:40:45;17.80;85.00
53520;DHT22;39397;53.204;5.778;2022-09-17T15:45:48;17.90;84.20
53520;DHT22;39397;53.204;5.778;2022-09-17T15:50:54;18.10;84.20
53520;DHT22;39397;53.204;5.778;2022-09-17T15:53:25;18.20;85.10
53520;DHT22;39397;53.204;5.778;2022-09-17T15:56:07;18.30;84.60
53520;DHT22;39397;53.204;5.778;2022-09-17T15:58:50;18.30;83.30
53520;DHT22;39397;53.204;5.778;2022-09-17T16:08:44;18.40;82.60
53520;DHT22;39397;53.204;5.778;2022-09-17T16:11:17;18.40;82.60
53520;DHT22;39397;53.204;5.778;2022-09-17T16:13:50;18.30;82.90
53520;DHT22;39397;53.204;5.778;2022-09-17T16:16:21;18.20;84.00
53520;DHT22;39397;53.204;5.778;2022-09-17T16:18:48;18.10;82.90
53520;DHT22;39397;53.204;5.778;2022-09-17T16:21:15;18.20;84.40
53520;DHT22;39397;53.204;5.778;2022-09-17T16:23:41;18.40;84.30
53520;DHT22;39397;53.204;5.778;2022-09-17T16:26:17;18.50;83.80
53520;DHT22;39397;53.204;5.778;2022-09-17T16:28:45;18.80;83.70
53520;DHT22;39397;53.204;5.778;2022-09-17T16:31:14;18.90;83.30
53520;DHT22;39397;53.204;5.778;2022-09-17T16:33:40;19.00;83.30
53520;DHT22;39397;53.204;5.778;2022-09-17T16:36:06;18.90;83.30
53520;DHT22;39397;53.204;5.778;2022-09-17T16:38:32;18.80;83.60
53520;DHT22;39397;53.204;5.778;2022-09-17T16:40:58;18.70;84.20
53520;DHT22;39397;53.204;5.778;2022-09-17T16:43:23;18.60;84.60
53520;DHT22;39397;53.204;5.778;2022-09-17T16:46:04;18.60;85.30
53520;DHT22;39397;53.204;5.778;2022-09-17T16:48:31;18.50;86.00
53520;DHT22;39397;53.204;5.778;2022-09-17T16:50:57;18.40;86.00
53520;DHT22;39397;53.204;5.778;2022-09-17T16:53:23;18.30;86.20
53520;DHT22;39397;53.204;5.778;2022-09-17T16:55:49;18.20;86.30
53520;DHT22;39397;53.204;5.778;2022-09-17T16:58:14;18.20;86.50
53520;DHT22;39397;53.204;5.778;2022-09-17T17:00:43;18.10;86.60
53520;DHT22;39397;53.204;5.778;2022-09-17T17:03:13;18.10;87.10
53520;DHT22;39397;53.204;5.778;2022-09-17T17:05:39;18.00;87.20
53520;DHT22;39397;53.204;5.778;2022-09-17T17:08:06;18.00;87.20
53520;DHT22;39397;53.204;5.778;2022-09-17T17:10:32;17.80;87.40
53520;DHT22;39397;53.204;5.778;2022-09-17T17:12:58;17.80;87.60
53520;DHT22;39397;53.204;5.778;2022-09-17T17:15:24;17.80;87.70
53520;DHT22;39397;53.204;5.778;2022-09-17T17:17:50;17.70;87.80
53520;DHT22;39397;53.204;5.778;2022-09-17T17:20:16;17.70;87.90
53520;DHT22;39397;53.204;5.778;2022-09-17T17:22:42;17.70;87.90
53520;DHT22;39397;53.204;5.778;2022-09-17T17:25:09;17.60;87.90
53520;DHT22;39397;53.204;5.778;2022-09-17T17:27:35;17.60;88.00
53520;DHT22;39397;53.204;5.778;2022-09-17T17:30:03;17.50;88.10
53520;DHT22;39397;53.204;5.778;2022-09-17T17:32:34;17.60;88.10
53520;DHT22;39397;53.204;5.778;2022-09-17T17:35:00;17.60;88.40
53520;DHT22;39397;53.204;5.778;2022-09-17T17:37:26;17.50;88.30
53520;DHT22;39397;53.204;5.778;2022-09-17T17:39:52;17.40;88.30
53520;DHT22;39397;53.204;5.778;2022-09-17T17:42:19;17.40;88.50
53520;DHT22;39397;53.204;5.778;2022-09-17T17:44:45;17.30;88.60
53520;DHT22;39397;53.204;5.778;2022-09-17T17:47:12;17.30;88.60
53520;DHT22;39397;53.204;5.778;2022-09-17T17:49:38;17.30;88.80
53520;DHT22;39397;53.204;5.778;2022-09-17T17:52:03;17.10;88.90
53520;DHT22;39397;53.204;5.778;2022-09-17T17:54:29;17.20;89.10
53520;DHT22;39397;53.204;5.778;2022-09-17T17:56:55;17.20;89.40
53520;DHT22;39397;53.204;5.778;2022-09-17T17:59:21;17.20;89.40
53520;DHT22;39397;53.204;5.778;2022-09-17T18:01:47;17.20;89.50
53520;DHT22;39397;53.204;5.778;2022-09-17T18:04:12;17.00;89.40
53520;DHT22;39397;53.204;5.778;2022-09-17T18:06:38;17.10;89.20
53520;DHT22;39397;53.204;5.778;2022-09-17T18:09:04;17.00;88.90
53520;DHT22;39397;53.204;5.778;2022-09-17T18:11:31;17.00;89.00
53520;DHT22;39397;53.204;5.778;2022-09-17T18:13:57;17.00;89.20
53520;DHT22;39397;53.204;5.778;2022-09-17T18:16:25;17.00;89.20
53520;DHT22;39397;53.204;5.778;2022-09-17T18:18:51;17.20;89.10
53520;DHT22;39397;53.204;5.778;2022-09-17T18:21:21;16.90;89.10
53520;DHT22;39397;53.204;5.778;2022-09-17T18:23:48;16.90;89.50
53520;DHT22;39397;53.204;5.778;2022-09-17T18:26:25;16.90;89.50
53520;DHT22;39397;53.204;5.778;2022-09-17T18:28:51;16.90;89.60
53520;DHT22;39397;53.204;5.778;2022-09-17T18:31:26;16.80;89.50
53520;DHT22;39397;53.204;5.778;2022-09-17T18:34:12;16.80;88.10
53520;DHT22;39397;53.204;5.778;2022-09-17T18:36:38;16.80;88.90
53520;DHT22;39397;53.204;5.778;2022-09-17T18:39:07;16.80;89.80
53520;DHT22;39397;53.204;5.778;2022-09-17T18:41:35;16.80;89.80
53520;DHT22;39397;53.204;5.778;2022-09-17T18:44:03;16.70;89.90
53520;DHT22;39397;53.204;5.778;2022-09-17T18:46:29;16.80;89.80
53520;DHT22;39397;53.204;5.778;2022-09-17T18:48:58;16.80;89.90
53520;DHT22;39397;53.204;5.778;2022-09-17T18:51:26;16.80;90.10
53520;DHT22;39397;53.204;5.778;2022-09-17T18:53:52;16.80;90.00
53520;DHT22;39397;53.204;5.778;2022-09-17T18:56:20;16.80;90.00
53520;DHT22;39397;53.204;5.778;2022-09-17T18:58:48;17.80;90.30
53520;DHT22;39397;53.204;5.778;2022-09-17T19:01:15;17.00;90.10
53520;DHT22;39397;53.204;5.778;2022-09-17T19:03:41;16.80;90.00
53520;DHT22;39397;53.204;5.778;2022-09-17T19:06:09;16.90;89.90
53520;DHT22;39397;53.204;5.778;2022-09-17T19:08:35;16.90;89.90
53520;DHT22;39397;53.204;5.778;2022-09-17T19:11:01;16.90;89.80
53520;DHT22;39397;53.204;5.778;2022-09-17T19:13:32;16.80;90.00
53520;DHT22;39397;53.204;5.778;2022-09-17T19:15:59;16.90;90.10
53520;DHT22;39397;53.204;5.778;2022-09-17T19:18:26;16.80;90.00
53520;DHT22;39397;53.204;5.778;2022-09-17T19:20:57;16.90;90.10
53520;DHT22;39397;53.204;5.778;2022-09-17T19:23:22;16.90;90.10